sensor_id;sensor_type;location;lat;lon;timestamp;temperature;humidity
22065;DHT22;11197;53.110;8.468;2022-12-05T00:00:25;4.60;99.90
22065;DHT22;11197;53.110;8.468;2022-12-05T00:02:51;4.60;99.90
22065;DHT22;11197;53.110;8.468;2022-12-05T00:05:17;4.60;99.90
22065;DHT22;11197;53.110;8.468;2022-12-05T00:07:43;4.60;99.90
22065;DHT22;11197;53.110;8.468;2022-12-05T00:10:10;4.60;99.90
22065;DHT22;11197;53.110;8.468;2022-12-05T00:12:36;4.60;99.90
22065;DHT22;11197;53.110;8.468;2022-12-05T00:15:02;4.70;99.90
22065;DHT22;11197;53.110;8.468;2022-12-05T00:17:30;4.70;99.90
22065;DHT22;11197;53.110;8.468;2022-12-05T00:19:56;4.60;99.90
22065;DHT22;11197;53.110;8.468;2022-12-05T00:22:22;4.60;99.90
22065;DHT22;11197;53.110;8.468;2022-12-05T00:24:48;4.60;99.90
22065;DHT22;11197;53.110;8.468;2022-12-05T00:27:14;4.60;99.90
22065;DHT22;11197;53.110;8.468;2022-12-05T00:29:40;4.60;99.90
22065;DHT22;11197;53.110;8.468;2022-12-05T00:32:06;4.60;99.90
22065;DHT22;11197;53.110;8.468;2022-12-05T00:34:32;4.60;99.90
22065;DHT22;11197;53.110;8.468;2022-12-05T00:36:58;4.60;99.90
22065;DHT22;11197;53.110;8.468;2022-12-05T00:39:24;4.60;99.90
22065;DHT22;11197;53.110;8.468;2022-12-05T00:41:50;4.60;99.90
22065;DHT22;11197;53.110;8.468;2022-12-05T00:44:16;4.70;99.90
22065;DHT22;11197;53.110;8.468;2022-12-05T00:46:42;4.70;99.90
22065;DHT22;11197;53.110;8.468;2022-12-05T00:49:09;4.60;99.90
22065;DHT22;11197;53.110;8.468;2022-12-05T00:51:38;4.60;99.90
22065;DHT22;11197;53.110;8.468;2022-12-05T00:54:12;4.60;99.90
22065;DHT22;11197;53.110;8.468;2022-12-05T00:56:39;4.60;99.90
22065;DHT22;11197;53.110;8.468;2022-12-05T00:59:05;4.60;99.90
22065;DHT22;11197;53.110;8.468;2022-12-05T01:01:39;4.60;99.90
22065;DHT22;11197;53.110;8.468;2022-12-05T01:04:12;4.60;99.90
22065;DHT22;11197;53.110;8.468;2022-12-05T01:06:38;4.60;99.90
22065;DHT22;11197;53.110;8.468;2022-12-05T01:09:05;4.60;99.90
22065;DHT22;11197;53.110;8.468;2022-12-05T01:11:31;4.60;99.90
22065;DHT22;11197;53.110;8.468;2022-12-05T01:13:58;4.60;99.90
22065;DHT22;11197;53.110;8.468;2022-12-05T01:16:27;4.60;99.90
22065;DHT22;11197;53.110;8.468;2022-12-05T01:18:55;4.60;99.90
22065;DHT22;11197;53.110;8.468;2022-12-05T01:21:22;4.60;99.90
22065;DHT22;11197;53.110;8.468;2022-12-05T01:23:48;4.60;99.90
22065;DHT22;11197;53.110;8.468;2022-12-05T01:26:17;4.60;99.90
22065;DHT22;11197;53.110;8.468;2022-12-05T01:28:43;4.60;99.90
22065;DHT22;11197;53.110;8.468;2022-12-05T01:33:41;4.60;99.90
22065;DHT22;11197;53.110;8.468;2022-12-05T01:36:09;4.60;99.90
22065;DHT22;11197;53.110;8.468;2022-12-05T01:38:38;4.60;99.90
22065;DHT22;11197;53.110;8.468;2022-12-05T01:41:06;4.60;99.90
22065;DHT22;11197;53.110;8.468;2022-12-05T01:43:32;4.60;99.90
22065;DHT22;11197;53.110;8.468;2022-12-05T01:45:59;4.60;99.90
22065;DHT22;11197;53.110;8.468;2022-12-05T01:48:31;4.60;99.90
22065;DHT22;11197;53.110;8.468;2022-12-05T01:50:59;4.60;99.90
22065;DHT22;11197;53.110;8.468;2022-12-05T01:53:26;4.60;99.90
22065;DHT22;11197;53.110;8.468;2022-12-05T01:55:53;4.60;99.90
22065;DHT22;11197;53.110;8.468;2022-12-05T01:58:20;4.70;99.90
22065;DHT22;11197;53.110;8.468;2022-12-05T02:00:46;4.60;99.90
22065;DHT22;11197;53.110;8.468;2022-12-05T02:03:18;4.60;99.90
22065;DHT22;11197;53.110;8.468;2022-12-05T02:05:47;4.60;99.90
22065;DHT22;11197;53.110;8.468;2022-12-05T02:08:14;4.60;99.90
22065;DHT22;11197;53.110;8.468;2022-12-05T02:10:45;4.60;99.90
22065;DHT22;11197;53.110;8.468;2022-12-05T02:22:26;4.60;99.90
22065;DHT22;11197;53.110;8.468;2022-12-05T02:30:57;4.70;99.90
22065;DHT22;11197;53.110;8.468;2022-12-05T02:34:25;4.70;99.90
22065;DHT22;11197;53.110;8.468;2022-12-05T02:36:44;4.70;99.90
22065;DHT22;11197;53.110;8.468;2022-12-05T02:39:28;4.60;99.90
22065;DHT22;11197;53.110;8.468;2022-12-05T02:44:38;4.70;99.90
22065;DHT22;11197;53.110;8.468;2022-12-05T02:47:06;4.60;99.90
22065;DHT22;11197;53.110;8.468;2022-12-05T02:49:35;4.70;99.90
22065;DHT22;11197;53.110;8.468;2022-12-05T02:52:05;4.70;99.90
22065;DHT22;11197;53.110;8.468;2022-12-05T02:54:37;4.70;99.90
22065;DHT22;11197;53.110;8.468;2022-12-05T02:57:06;4.70;99.90
22065;DHT22;11197;53.110;8.468;2022-12-05T02:59:33;4.70;99.90
22065;DHT22;11197;53.110;8.468;2022-12-05T03:01:59;4.70;99.90
22065;DHT22;11197;53.110;8.468;2022-12-05T03:04:26;4.70;99.90
22065;DHT22;11197;53.110;8.468;2022-12-05T03:07:05;4.70;99.90
22065;DHT22;11197;53.110;8.468;2022-12-05T03:12:32;4.70;99.90
22065;DHT22;11197;53.110;8.468;2022-12-05T03:15:02;4.70;99.90
22065;DHT22;11197;53.110;8.468;2022-12-05T03:17:32;4.70;99.90
22065;DHT22;11197;53.110;8.468;2022-12-05T03:20:13;4.70;99.90
22065;DHT22;11197;53.110;8.468;2022-12-05T03:22:50;4.70;99.90
22065;DHT22;11197;53.110;8.468;2022-12-05T03:25:21;4.70;99.90
22065;DHT22;11197;53.110;8.468;2022-12-05T03:27:52;4.70;99.90
22065;DHT22;11197;53.110;8.468;2022-12-05T03:30:23;4.70;99.90
22065;DHT22;11197;53.110;8.468;2022-12-05T03:37:59;4.70;99.90
22065;DHT22;11197;53.110;8.468;2022-12-05T03:51:30;4.70;99.90
22065;DHT22;11197;53.110;8.468;2022-12-05T03:56:34;4.70;99.90
22065;DHT22;11197;53.110;8.468;2022-12-05T04:01:34;4.70;99.90
22065;DHT22;11197;53.110;8.468;2022-12-05T04:04:11;4.70;99.90
22065;DHT22;11197;53.110;8.468;2022-12-05T04:06:39;4.70;99.90
22065;DHT22;11197;53.110;8.468;2022-12-05T04:09:07;4.70;99.90
22065;DHT22;11197;53.110;8.468;2022-12-05T04:11:36;4.70;99.90
22065;DHT22;11197;53.110;8.468;2022-12-05T04:14:11;4.70;99.90
22065;DHT22;11197;53.110;8.468;2022-12-05T04:17:01;4.70;99.90
22065;DHT22;11197;53.110;8.468;2022-12-05T04:22:20;4.80;99.90
22065;DHT22;11197;53.110;8.468;2022-12-05T04:24:48;4.70;99.90
22065;DHT22;11197;53.110;8.468;2022-12-05T04:30:15;4.80;99.90
22065;DHT22;11197;53.110;8.468;2022-12-05T04:35:32;4.80;99.90
22065;DHT22;11197;53.110;8.468;2022-12-05T04:38:06;4.80;99.90
22065;DHT22;11197;53.110;8.468;2022-12-05T04:40:43;4.70;99.90
22065;DHT22;11197;53.110;8.468;2022-12-05T04:43:11;4.80;99.90
22065;DHT22;11197;53.110;8.468;2022-12-05T04:45:40;4.70;99.90
22065;DHT22;11197;53.110;8.468;2022-12-05T04:48:11;4.70;99.90
22065;DHT22;11197;53.110;8.468;2022-12-05T04:50:38;4.80;99.90
22065;DHT22;11197;53.110;8.468;2022-12-05T04:53:08;4.80;99.90
22065;DHT22;11197;53.110;8.468;2022-12-05T04:55:36;4.70;99.90
22065;DHT22;11197;53.110;8.468;2022-12-05T04:58:06;4.80;99.90
22065;DHT22;11197;53.110;8.468;2022-12-05T05:00:56;4.70;99.90
22065;DHT22;11197;53.110;8.468;2022-12-05T05:06:03;4.80;99.90
22065;DHT22;11197;53.110;8.468;2022-12-05T05:08:29;4.70;99.90
22065;DHT22;11197;53.110;8.468;2022-12-05T05:13:40;4.80;99.90
22065;DHT22;11197;53.110;8.468;2022-12-05T05:16:06;4.80;99.90
22065;DHT22;11197;53.110;8.468;2022-12-05T05:18:33;4.80;99.90
22065;DHT22;11197;53.110;8.468;2022-12-05T05:21:00;4.80;99.90
22065;DHT22;11197;53.110;8.468;2022-12-05T05:23:27;4.80;99.90
22065;DHT22;11197;53.110;8.468;2022-12-05T05:25:54;4.80;99.90
22065;DHT22;11197;53.110;8.468;2022-12-05T05:28:21;4.80;99.90
22065;DHT22;11197;53.110;8.468;2022-12-05T05:30:48;4.80;99.90
22065;DHT22;11197;53.110;8.468;2022-12-05T05:33:14;4.80;99.90
22065;DHT22;11197;53.110;8.468;2022-12-05T05:35:40;4.80;99.90
22065;DHT22;11197;53.110;8.468;2022-12-05T05:38:06;4.80;99.90
22065;DHT22;11197;53.110;8.468;2022-12-05T05:40:35;4.80;99.90
22065;DHT22;11197;53.110;8.468;2022-12-05T05:43:03;4.80;99.90
22065;DHT22;11197;53.110;8.468;2022-12-05T05:45:29;4.80;99.90
22065;DHT22;11197;53.110;8.468;2022-12-05T05:47:55;4.80;99.90
22065;DHT22;11197;53.110;8.468;2022-12-05T05:50:21;4.80;99.90
22065;DHT22;11197;53.110;8.468;2022-12-05T05:52:48;4.80;99.90
22065;DHT22;11197;53.110;8.468;2022-12-05T05:55:14;4.80;99.90
22065;DHT22;11197;53.110;8.468;2022-12-05T05:57:40;4.90;99.90
22065;DHT22;11197;53.110;8.468;2022-12-05T06:00:07;4.90;99.90
22065;DHT22;11197;53.110;8.468;2022-12-05T06:02:34;4.90;99.90
22065;DHT22;11197;53.110;8.468;2022-12-05T06:05:00;4.90;99.90
22065;DHT22;11197;53.110;8.468;2022-12-05T06:07:28;4.90;99.90
22065;DHT22;11197;53.110;8.468;2022-12-05T06:09:54;4.90;99.90
22065;DHT22;11197;53.110;8.468;2022-12-05T06:12:20;4.90;99.90
22065;DHT22;11197;53.110;8.468;2022-12-05T06:14:50;4.90;99.90
22065;DHT22;11197;53.110;8.468;2022-12-05T06:17:16;4.90;99.90
22065;DHT22;11197;53.110;8.468;2022-12-05T06:19:42;4.90;99.90
22065;DHT22;11197;53.110;8.468;2022-12-05T06:22:08;4.90;99.90
22065;DHT22;11197;53.110;8.468;2022-12-05T06:24:34;4.90;99.90
22065;DHT22;11197;53.110;8.468;2022-12-05T06:27:00;4.90;99.90
22065;DHT22;11197;53.110;8.468;2022-12-05T06:29:26;5.00;99.90
22065;DHT22;11197;53.110;8.468;2022-12-05T06:31:51;5.00;99.90
22065;DHT22;11197;53.110;8.468;2022-12-05T06:34:17;5.00;99.90
22065;DHT22;11197;53.110;8.468;2022-12-05T06:36:43;5.00;99.90
22065;DHT22;11197;53.110;8.468;2022-12-05T06:39:09;5.00;99.90
22065;DHT22;11197;53.110;8.468;2022-12-05T06:41:35;5.00;99.90
22065;DHT22;11197;53.110;8.468;2022-12-05T06:44:01;4.90;99.90
22065;DHT22;11197;53.110;8.468;2022-12-05T06:46:27;5.00;99.90
22065;DHT22;11197;53.110;8.468;2022-12-05T06:48:55;5.00;99.90
22065;DHT22;11197;53.110;8.468;2022-12-05T06:51:21;5.00;99.90
22065;DHT22;11197;53.110;8.468;2022-12-05T06:53:47;4.90;99.90
22065;DHT22;11197;53.110;8.468;2022-12-05T06:56:16;5.00;99.90
22065;DHT22;11197;53.110;8.468;2022-12-05T06:58:43;5.00;99.90
22065;DHT22;11197;53.110;8.468;2022-12-05T07:01:21;5.00;99.90
22065;DHT22;11197;53.110;8.468;2022-12-05T07:04:15;5.00;99.90
22065;DHT22;11197;53.110;8.468;2022-12-05T07:06:43;5.00;99.90
22065;DHT22;11197;53.110;8.468;2022-12-05T07:09:10;5.10;99.90
22065;DHT22;11197;53.110;8.468;2022-12-05T07:11:37;5.00;99.90
22065;DHT22;11197;53.110;8.468;2022-12-05T07:14:03;5.00;99.90
22065;DHT22;11197;53.110;8.468;2022-12-05T07:16:31;5.00;99.90
22065;DHT22;11197;53.110;8.468;2022-12-05T07:18:57;5.10;99.90
22065;DHT22;11197;53.110;8.468;2022-12-05T07:21:23;5.80;99.90
22065;DHT22;11197;53.110;8.468;2022-12-05T07:23:49;6.00;99.90
22065;DHT22;11197;53.110;8.468;2022-12-05T07:26:18;6.00;99.90
22065;DHT22;11197;53.110;8.468;2022-12-05T07:28:46;6.00;99.90
22065;DHT22;11197;53.110;8.468;2022-12-05T07:31:18;5.90;99.90
22065;DHT22;11197;53.110;8.468;2022-12-05T07:33:45;5.80;99.90
22065;DHT22;11197;53.110;8.468;2022-12-05T07:36:16;5.70;99.90
22065;DHT22;11197;53.110;8.468;2022-12-05T07:38:43;5.70;99.90
22065;DHT22;11197;53.110;8.468;2022-12-05T07:41:18;5.60;99.90
22065;DHT22;11197;53.110;8.468;2022-12-05T07:43:45;5.60;99.90
22065;DHT22;11197;53.110;8.468;2022-12-05T07:46:11;5.50;99.90
22065;DHT22;11197;53.110;8.468;2022-12-05T07:48:37;5.50;99.90
22065;DHT22;11197;53.110;8.468;2022-12-05T07:51:05;5.40;99.90
22065;DHT22;11197;53.110;8.468;2022-12-05T07:53:33;5.40;99.90
22065;DHT22;11197;53.110;8.468;2022-12-05T07:56:00;5.40;99.90
22065;DHT22;11197;53.110;8.468;2022-12-05T07:58:30;5.40;99.90
22065;DHT22;11197;53.110;8.468;2022-12-05T08:01:04;5.30;99.90
22065;DHT22;11197;53.110;8.468;2022-12-05T08:03:30;5.30;99.90
22065;DHT22;11197;53.110;8.468;2022-12-05T08:06:01;5.30;99.90
22065;DHT22;11197;53.110;8.468;2022-12-05T08:08:27;5.30;99.90
22065;DHT22;11197;53.110;8.468;2022-12-05T08:10:53;5.30;99.90
22065;DHT22;11197;53.110;8.468;2022-12-05T08:13:19;5.30;99.90
22065;DHT22;11197;53.110;8.468;2022-12-05T08:15:45;5.30;99.90
22065;DHT22;11197;53.110;8.468;2022-12-05T08:18:10;5.30;99.90
22065;DHT22;11197;53.110;8.468;2022-12-05T08:20:36;5.30;99.90
22065;DHT22;11197;53.110;8.468;2022-12-05T08:23:03;5.30;99.90
22065;DHT22;11197;53.110;8.468;2022-12-05T08:25:29;5.30;99.90
22065;DHT22;11197;53.110;8.468;2022-12-05T08:27:55;5.30;99.90
22065;DHT22;11197;53.110;8.468;2022-12-05T08:30:21;5.20;99.90
22065;DHT22;11197;53.110;8.468;2022-12-05T08:32:47;5.30;99.90
22065;DHT22;11197;53.110;8.468;2022-12-05T08:35:13;5.30;99.90
22065;DHT22;11197;53.110;8.468;2022-12-05T08:37:41;5.30;99.90
22065;DHT22;11197;53.110;8.468;2022-12-05T08:40:07;5.30;99.90
22065;DHT22;11197;53.110;8.468;2022-12-05T08:42:33;5.30;99.90
22065;DHT22;11197;53.110;8.468;2022-12-05T08:44:59;5.30;99.90
22065;DHT22;11197;53.110;8.468;2022-12-05T08:47:25;5.30;99.90
22065;DHT22;11197;53.110;8.468;2022-12-05T08:49:51;5.30;99.90
22065;DHT22;11197;53.110;8.468;2022-12-05T08:52:17;5.30;99.90
22065;DHT22;11197;53.110;8.468;2022-12-05T08:54:43;5.30;99.90
22065;DHT22;11197;53.110;8.468;2022-12-05T08:57:09;5.30;99.90
22065;DHT22;11197;53.110;8.468;2022-12-05T08:59:35;5.30;99.90
22065;DHT22;11197;53.110;8.468;2022-12-05T09:02:01;5.30;99.90
22065;DHT22;11197;53.110;8.468;2022-12-05T09:04:27;5.30;99.90
22065;DHT22;11197;53.110;8.468;2022-12-05T09:06:53;5.30;99.90
22065;DHT22;11197;53.110;8.468;2022-12-05T09:09:19;5.30;99.90
22065;DHT22;11197;53.110;8.468;2022-12-05T09:11:45;5.30;99.90
22065;DHT22;11197;53.110;8.468;2022-12-05T09:14:14;5.40;99.90
22065;DHT22;11197;53.110;8.468;2022-12-05T09:16:43;5.40;99.90
22065;DHT22;11197;53.110;8.468;2022-12-05T09:19:15;5.40;99.90
22065;DHT22;11197;53.110;8.468;2022-12-05T09:21:42;5.40;99.90
22065;DHT22;11197;53.110;8.468;2022-12-05T09:24:10;5.40;99.90
22065;DHT22;11197;53.110;8.468;2022-12-05T09:26:38;5.40;99.90
22065;DHT22;11197;53.110;8.468;2022-12-05T09:29:04;5.40;99.90
22065;DHT22;11197;53.110;8.468;2022-12-05T09:31:30;5.40;99.90
22065;DHT22;11197;53.110;8.468;2022-12-05T09:33:56;5.40;99.90
22065;DHT22;11197;53.110;8.468;2022-12-05T09:36:27;5.40;99.90
22065;DHT22;11197;53.110;8.468;2022-12-05T09:38:54;5.40;99.90
22065;DHT22;11197;53.110;8.468;2022-12-05T09:47:06;5.40;99.90
22065;DHT22;11197;53.110;8.468;2022-12-05T09:49:50;5.40;99.90
22065;DHT22;11197;53.110;8.468;2022-12-05T09:52:28;5.40;99.90
22065;DHT22;11197;53.110;8.468;2022-12-05T09:54:56;5.40;99.90
22065;DHT22;11197;53.110;8.468;2022-12-05T09:57:35;5.40;99.90
22065;DHT22;11197;53.110;8.468;2022-12-05T10:00:04;5.40;99.90
22065;DHT22;11197;53.110;8.468;2022-12-05T10:05:07;5.40;99.90
22065;DHT22;11197;53.110;8.468;2022-12-05T10:13:09;5.40;99.90
22065;DHT22;11197;53.110;8.468;2022-12-05T10:15:43;5.40;99.90
22065;DHT22;11197;53.110;8.468;2022-12-05T10:18:53;5.40;99.90
22065;DHT22;11197;53.110;8.468;2022-12-05T10:21:30;5.40;99.90
22065;DHT22;11197;53.110;8.468;2022-12-05T10:24:01;5.40;99.90
22065;DHT22;11197;53.110;8.468;2022-12-05T10:26:35;5.40;99.90
22065;DHT22;11197;53.110;8.468;2022-12-05T10:29:18;5.40;99.90
22065;DHT22;11197;53.110;8.468;2022-12-05T10:31:47;5.40;99.90
22065;DHT22;11197;53.110;8.468;2022-12-05T10:34:37;5.40;99.90
22065;DHT22;11197;53.110;8.468;2022-12-05T10:39:29;5.40;99.90
22065;DHT22;11197;53.110;8.468;2022-12-05T10:41:55;5.40;99.90
22065;DHT22;11197;53.110;8.468;2022-12-05T10:44:21;5.40;99.90
22065;DHT22;11197;53.110;8.468;2022-12-05T10:46:47;5.40;99.90
22065;DHT22;11197;53.110;8.468;2022-12-05T10:49:13;5.40;99.90
22065;DHT22;11197;53.110;8.468;2022-12-05T10:51:39;5.40;99.90
22065;DHT22;11197;53.110;8.468;2022-12-05T10:54:18;5.40;99.90
22065;DHT22;11197;53.110;8.468;2022-12-05T10:56:50;5.40;99.90
22065;DHT22;11197;53.110;8.468;2022-12-05T10:59:19;5.40;99.90
22065;DHT22;11197;53.110;8.468;2022-12-05T11:01:51;5.40;99.90
22065;DHT22;11197;53.110;8.468;2022-12-05T11:06:58;5.40;99.90
22065;DHT22;11197;53.110;8.468;2022-12-05T11:09:31;5.40;99.90
22065;DHT22;11197;53.110;8.468;2022-12-05T11:17:45;5.40;99.90
22065;DHT22;11197;53.110;8.468;2022-12-05T11:22:48;5.40;99.90
22065;DHT22;11197;53.110;8.468;2022-12-05T11:27:55;5.40;99.90
22065;DHT22;11197;53.110;8.468;2022-12-05T11:30:23;5.40;99.90
22065;DHT22;11197;53.110;8.468;2022-12-05T11:33:19;5.40;99.90
22065;DHT22;11197;53.110;8.468;2022-12-05T11:35:47;5.40;99.90
22065;DHT22;11197;53.110;8.468;2022-12-05T11:38:15;5.40;99.90
22065;DHT22;11197;53.110;8.468;2022-12-05T11:44:00;5.40;99.90
22065;DHT22;11197;53.110;8.468;2022-12-05T11:50:00;5.40;99.90
22065;DHT22;11197;53.110;8.468;2022-12-05T11:55:20;5.40;99.90
22065;DHT22;11197;53.110;8.468;2022-12-05T12:00:55;5.40;99.90
22065;DHT22;11197;53.110;8.468;2022-12-05T12:06:30;5.30;99.90
22065;DHT22;11197;53.110;8.468;2022-12-05T12:14:27;5.30;99.90
22065;DHT22;11197;53.110;8.468;2022-12-05T12:20:10;5.30;99.90
22065;DHT22;11197;53.110;8.468;2022-12-05T12:25:51;5.30;99.90
22065;DHT22;11197;53.110;8.468;2022-12-05T12:49:54;5.30;99.90
22065;DHT22;11197;53.110;8.468;2022-12-05T12:52:28;5.30;99.90
22065;DHT22;11197;53.110;8.468;2022-12-05T13:05:49;5.30;99.90
22065;DHT22;11197;53.110;8.468;2022-12-05T13:10:50;5.30;99.90
22065;DHT22;11197;53.110;8.468;2022-12-05T13:13:29;5.30;99.90
22065;DHT22;11197;53.110;8.468;2022-12-05T13:16:04;5.30;99.90
22065;DHT22;11197;53.110;8.468;2022-12-05T13:18:33;5.30;99.90
22065;DHT22;11197;53.110;8.468;2022-12-05T13:21:02;5.20;99.90
22065;DHT22;11197;53.110;8.468;2022-12-05T13:23:30;5.20;99.90
22065;DHT22;11197;53.110;8.468;2022-12-05T13:25:59;5.20;99.90
22065;DHT22;11197;53.110;8.468;2022-12-05T13:28:50;5.20;99.90
22065;DHT22;11197;53.110;8.468;2022-12-05T13:31:18;5.20;99.90
22065;DHT22;11197;53.110;8.468;2022-12-05T13:33:47;5.20;99.90
22065;DHT22;11197;53.110;8.468;2022-12-05T13:36:15;5.20;99.90
22065;DHT22;11197;53.110;8.468;2022-12-05T13:39:11;5.20;99.90
22065;DHT22;11197;53.110;8.468;2022-12-05T13:42:00;5.20;99.90
22065;DHT22;11197;53.110;8.468;2022-12-05T13:44:56;5.20;99.90
22065;DHT22;11197;53.110;8.468;2022-12-05T13:52:51;5.20;99.90
22065;DHT22;11197;53.110;8.468;2022-12-05T13:55:39;5.10;99.90
22065;DHT22;11197;53.110;8.468;2022-12-05T14:09:47;5.00;99.90
22065;DHT22;11197;53.110;8.468;2022-12-05T14:12:27;5.00;99.90
22065;DHT22;11197;53.110;8.468;2022-12-05T14:14:58;5.00;99.90
22065;DHT22;11197;53.110;8.468;2022-12-05T14:17:29;4.90;99.90
22065;DHT22;11197;53.110;8.468;2022-12-05T14:25:52;4.90;99.90
22065;DHT22;11197;53.110;8.468;2022-12-05T14:36:53;4.90;99.90
22065;DHT22;11197;53.110;8.468;2022-12-05T14:39:21;4.90;99.90
22065;DHT22;11197;53.110;8.468;2022-12-05T14:42:02;4.90;99.90
22065;DHT22;11197;53.110;8.468;2022-12-05T14:44:29;4.80;99.90
22065;DHT22;11197;53.110;8.468;2022-12-05T14:47:00;4.90;99.90
22065;DHT22;11197;53.110;8.468;2022-12-05T14:49:35;4.90;99.90
22065;DHT22;11197;53.110;8.468;2022-12-05T14:52:22;4.80;99.90
22065;DHT22;11197;53.110;8.468;2022-12-05T14:54:55;4.80;99.90
22065;DHT22;11197;53.110;8.468;2022-12-05T14:57:23;4.80;99.90
22065;DHT22;11197;53.110;8.468;2022-12-05T15:02:26;4.80;99.90
22065;DHT22;11197;53.110;8.468;2022-12-05T15:05:08;4.80;99.90
22065;DHT22;11197;53.110;8.468;2022-12-05T15:07:40;4.80;99.90
22065;DHT22;11197;53.110;8.468;2022-12-05T15:12:46;4.70;99.90
22065;DHT22;11197;53.110;8.468;2022-12-05T15:18:37;4.70;99.90
22065;DHT22;11197;53.110;8.468;2022-12-05T15:32:05;4.70;99.90
22065;DHT22;11197;53.110;8.468;2022-12-05T15:34:59;4.70;99.90
22065;DHT22;11197;53.110;8.468;2022-12-05T15:40:18;4.70;99.90
22065;DHT22;11197;53.110;8.468;2022-12-05T15:45:19;4.60;99.90
22065;DHT22;11197;53.110;8.468;2022-12-05T15:50:52;4.60;99.90
22065;DHT22;11197;53.110;8.468;2022-12-05T15:58:41;4.60;99.90
22065;DHT22;11197;53.110;8.468;2022-12-05T16:01:23;4.60;99.90
22065;DHT22;11197;53.110;8.468;2022-12-05T16:06:18;4.60;99.90
22065;DHT22;11197;53.110;8.468;2022-12-05T16:08:48;4.60;99.90
22065;DHT22;11197;53.110;8.468;2022-12-05T16:11:15;4.50;99.90
22065;DHT22;11197;53.110;8.468;2022-12-05T16:13:46;4.50;99.90
22065;DHT22;11197;53.110;8.468;2022-12-05T16:16:21;4.50;99.90
22065;DHT22;11197;53.110;8.468;2022-12-05T16:18:52;4.50;99.90
22065;DHT22;11197;53.110;8.468;2022-12-05T16:23:59;4.50;99.90
22065;DHT22;11197;53.110;8.468;2022-12-05T16:26:26;4.50;99.90
22065;DHT22;11197;53.110;8.468;2022-12-05T16:29:00;4.50;99.90
22065;DHT22;11197;53.110;8.468;2022-12-05T16:31:27;4.50;99.90
22065;DHT22;11197;53.110;8.468;2022-12-05T16:36:26;4.50;99.90
22065;DHT22;11197;53.110;8.468;2022-12-05T16:39:00;4.50;99.90
22065;DHT22;11197;53.110;8.468;2022-12-05T16:41:34;4.40;99.90
22065;DHT22;11197;53.110;8.468;2022-12-05T16:44:00;4.40;99.90
22065;DHT22;11197;53.110;8.468;2022-12-05T16:49:18;4.40;99.90
22065;DHT22;11197;53.110;8.468;2022-12-05T16:51:53;4.40;99.90
22065;DHT22;11197;53.110;8.468;2022-12-05T16:54:20;4.40;99.90
22065;DHT22;11197;53.110;8.468;2022-12-05T16:56:46;4.40;99.90
22065;DHT22;11197;53.110;8.468;2022-12-05T16:59:44;4.40;99.90
22065;DHT22;11197;53.110;8.468;2022-12-05T17:02:15;4.40;99.90
22065;DHT22;11197;53.110;8.468;2022-12-05T17:04:42;4.40;99.90
22065;DHT22;11197;53.110;8.468;2022-12-05T17:07:08;4.40;99.90
22065;DHT22;11197;53.110;8.468;2022-12-05T17:09:34;4.40;99.90
22065;DHT22;11197;53.110;8.468;2022-12-05T17:12:12;4.30;99.90
22065;DHT22;11197;53.110;8.468;2022-12-05T17:14:40;4.40;99.90
22065;DHT22;11197;53.110;8.468;2022-12-05T17:17:13;4.30;99.90
22065;DHT22;11197;53.110;8.468;2022-12-05T17:19:40;4.40;99.90
22065;DHT22;11197;53.110;8.468;2022-12-05T17:22:06;4.30;99.90
22065;DHT22;11197;53.110;8.468;2022-12-05T17:24:32;4.30;99.90
22065;DHT22;11197;53.110;8.468;2022-12-05T17:26:58;4.30;99.90
22065;DHT22;11197;53.110;8.468;2022-12-05T17:29:24;4.30;99.90
22065;DHT22;11197;53.110;8.468;2022-12-05T17:31:52;4.30;99.90
22065;DHT22;11197;53.110;8.468;2022-12-05T17:34:18;4.30;99.90
22065;DHT22;11197;53.110;8.468;2022-12-05T17:36:44;4.40;99.90
22065;DHT22;11197;53.110;8.468;2022-12-05T17:39:10;4.50;99.90
22065;DHT22;11197;53.110;8.468;2022-12-05T17:41:37;4.70;99.90
22065;DHT22;11197;53.110;8.468;2022-12-05T17:44:04;4.70;99.90
22065;DHT22;11197;53.110;8.468;2022-12-05T17:46:30;4.70;99.90
22065;DHT22;11197;53.110;8.468;2022-12-05T17:48:56;4.60;99.90
22065;DHT22;11197;53.110;8.468;2022-12-05T17:51:22;4.60;99.90
22065;DHT22;11197;53.110;8.468;2022-12-05T17:53:48;4.50;99.90
22065;DHT22;11197;53.110;8.468;2022-12-05T17:56:14;4.50;99.90
22065;DHT22;11197;53.110;8.468;2022-12-05T17:58:41;4.50;99.90
22065;DHT22;11197;53.110;8.468;2022-12-05T18:01:13;4.40;99.90
22065;DHT22;11197;53.110;8.468;2022-12-05T18:03:39;4.40;99.90
22065;DHT22;11197;53.110;8.468;2022-12-05T18:06:06;4.40;99.90
22065;DHT22;11197;53.110;8.468;2022-12-05T18:08:32;4.40;99.90
22065;DHT22;11197;53.110;8.468;2022-12-05T18:10:59;4.40;99.90
22065;DHT22;11197;53.110;8.468;2022-12-05T18:13:25;4.30;99.90
22065;DHT22;11197;53.110;8.468;2022-12-05T18:15:56;4.90;99.90
22065;DHT22;11197;53.110;8.468;2022-12-05T18:18:22;5.20;99.90
22065;DHT22;11197;53.110;8.468;2022-12-05T18:20:52;5.30;99.90
22065;DHT22;11197;53.110;8.468;2022-12-05T18:23:18;5.30;99.90
22065;DHT22;11197;53.110;8.468;2022-12-05T18:25:44;5.20;99.90
22065;DHT22;11197;53.110;8.468;2022-12-05T18:28:11;5.10;99.90
22065;DHT22;11197;53.110;8.468;2022-12-05T18:30:37;5.00;99.90
22065;DHT22;11197;53.110;8.468;2022-12-05T18:33:03;4.90;99.90
22065;DHT22;11197;53.110;8.468;2022-12-05T18:35:30;4.80;99.90
22065;DHT22;11197;53.110;8.468;2022-12-05T18:38:14;4.70;99.90
22065;DHT22;11197;53.110;8.468;2022-12-05T18:40:40;4.70;99.90
22065;DHT22;11197;53.110;8.468;2022-12-05T18:43:06;4.60;99.90
22065;DHT22;11197;53.110;8.468;2022-12-05T18:45:31;4.60;99.90
22065;DHT22;11197;53.110;8.468;2022-12-05T18:47:57;4.50;99.90
22065;DHT22;11197;53.110;8.468;2022-12-05T18:50:23;4.50;99.90
22065;DHT22;11197;53.110;8.468;2022-12-05T18:52:50;4.40;99.90
22065;DHT22;11197;53.110;8.468;2022-12-05T18:55:15;4.40;99.90
22065;DHT22;11197;53.110;8.468;2022-12-05T18:57:42;4.40;99.90
22065;DHT22;11197;53.110;8.468;2022-12-05T19:00:09;4.40;99.90
22065;DHT22;11197;53.110;8.468;2022-12-05T19:02:35;4.40;99.90
22065;DHT22;11197;53.110;8.468;2022-12-05T19:05:01;4.30;99.90
22065;DHT22;11197;53.110;8.468;2022-12-05T19:07:27;4.30;99.90
22065;DHT22;11197;53.110;8.468;2022-12-05T19:09:53;4.30;99.90
22065;DHT22;11197;53.110;8.468;2022-12-05T19:12:19;4.30;99.90
22065;DHT22;11197;53.110;8.468;2022-12-05T19:14:46;4.30;99.90
22065;DHT22;11197;53.110;8.468;2022-12-05T19:17:12;4.30;99.90
22065;DHT22;11197;53.110;8.468;2022-12-05T19:19:39;4.30;99.90
22065;DHT22;11197;53.110;8.468;2022-12-05T19:22:05;4.30;99.90
22065;DHT22;11197;53.110;8.468;2022-12-05T19:24:31;4.30;99.90
22065;DHT22;11197;53.110;8.468;2022-12-05T19:26:57;4.30;99.90
22065;DHT22;11197;53.110;8.468;2022-12-05T19:29:23;4.20;99.90
22065;DHT22;11197;53.110;8.468;2022-12-05T19:31:49;4.20;99.90
22065;DHT22;11197;53.110;8.468;2022-12-05T19:34:15;4.20;99.90
22065;DHT22;11197;53.110;8.468;2022-12-05T19:36:43;4.20;99.90
22065;DHT22;11197;53.110;8.468;2022-12-05T19:39:19;4.20;99.90
22065;DHT22;11197;53.110;8.468;2022-12-05T19:41:46;4.20;99.90
22065;DHT22;11197;53.110;8.468;2022-12-05T19:44:13;4.20;99.90